createdAt,value
2019-03-28T00:02:18.082Z,99.90
2019-03-28T00:04:49.176Z,99.90
2019-03-28T00:07:20.424Z,99.90
2019-03-28T00:09:52.577Z,99.90
2019-03-28T00:12:23.646Z,99.90
2019-03-28T00:14:54.657Z,99.90
2019-03-28T00:17:25.637Z,99.90
2019-03-28T00:19:56.684Z,99.90
2019-03-28T00:22:44.538Z,99.90
2019-03-28T00:25:16.067Z,99.90
2019-03-28T00:27:47.172Z,99.90
2019-03-28T00:30:19.457Z,99.90
2019-03-28T00:32:50.558Z,99.90
2019-03-28T00:35:21.676Z,99.90
2019-03-28T00:37:52.671Z,99.90
2019-03-28T00:40:23.926Z,99.90
2019-03-28T00:42:54.978Z,99.90
2019-03-28T00:45:26.072Z,99.90
2019-03-28T00:47:57.018Z,99.90
2019-03-28T00:50:28.189Z,99.90
2019-03-28T00:52:59.295Z,99.90
2019-03-28T00:55:31.502Z,99.90
2019-03-28T00:58:02.479Z,99.90
2019-03-28T01:00:33.547Z,99.90
2019-03-28T01:03:04.905Z,99.90
2019-03-28T01:05:36.158Z,99.90
2019-03-28T01:08:07.294Z,99.90
2019-03-28T01:10:38.497Z,99.90
2019-03-28T01:13:09.696Z,99.90
2019-03-28T01:15:40.860Z,99.90
2019-03-28T01:18:12.094Z,99.90
2019-03-28T01:20:43.201Z,99.90
2019-03-28T01:23:14.251Z,99.90
2019-03-28T01:25:45.363Z,99.90
2019-03-28T01:28:16.405Z,99.90
2019-03-28T01:30:48.683Z,99.90
2019-03-28T01:33:19.734Z,99.90
2019-03-28T01:35:51.050Z,99.90
2019-03-28T01:38:22.156Z,99.90
2019-03-28T01:40:53.208Z,99.90
2019-03-28T01:43:24.212Z,99.90
2019-03-28T01:45:55.748Z,99.90
2019-03-28T01:48:26.734Z,99.90
2019-03-28T01:50:58.029Z,99.90
2019-03-28T01:53:29.004Z,99.90
2019-03-28T01:56:00.058Z,99.90
2019-03-28T01:58:31.078Z,99.90
2019-03-28T02:01:02.933Z,99.90
2019-03-28T02:03:34.181Z,99.90
2019-03-28T02:06:05.292Z,99.90
2019-03-28T02:08:36.292Z,99.90
2019-03-28T02:11:07.256Z,99.90
2019-03-28T02:13:38.503Z,99.90
2019-03-28T02:16:09.451Z,99.90
2019-03-28T02:18:40.578Z,99.90
2019-03-28T02:21:11.760Z,99.90
2019-03-28T02:23:42.940Z,99.90
2019-03-28T02:26:13.896Z,99.90
2019-03-28T02:28:45.016Z,99.90
2019-03-28T02:31:16.726Z,99.90
2019-03-28T02:33:48.145Z,99.90
2019-03-28T02:36:19.166Z,99.90
2019-03-28T02:38:50.247Z,99.90
2019-03-28T02:41:21.248Z,99.90
2019-03-28T02:43:52.246Z,99.90
2019-03-28T02:46:24.493Z,99.90
2019-03-28T02:48:55.668Z,99.90
2019-03-28T02:51:26.747Z,99.90
2019-03-28T02:53:57.889Z,99.90
2019-03-28T02:56:28.884Z,99.90
2019-03-28T02:58:59.983Z,99.90
2019-03-28T03:01:31.216Z,99.90
2019-03-28T03:04:02.272Z,99.90
2019-03-28T03:06:33.375Z,99.90
2019-03-28T03:09:06.774Z,99.90
2019-03-28T03:11:37.986Z,99.90
2019-03-28T03:14:09.100Z,99.90
2019-03-28T03:16:40.096Z,99.90
2019-03-28T03:19:11.232Z,99.90
2019-03-28T03:21:42.381Z,99.90
2019-03-28T03:24:13.450Z,99.90
2019-03-28T03:26:44.411Z,99.90
2019-03-28T03:29:15.446Z,99.90
2019-03-28T03:31:46.477Z,99.90
2019-03-28T03:34:17.466Z,99.90
2019-03-28T03:36:48.521Z,99.90
2019-03-28T03:39:19.660Z,99.90
2019-03-28T03:41:50.708Z,99.90
2019-03-28T03:44:22.979Z,99.90
2019-03-28T03:46:54.475Z,99.90
2019-03-28T03:49:25.616Z,99.90
2019-03-28T03:51:56.757Z,99.90
2019-03-28T03:54:27.865Z,99.90
2019-03-28T03:56:59.014Z,99.90
2019-03-28T03:59:30.140Z,99.90
2019-03-28T04:02:01.120Z,99.90
2019-03-28T04:04:32.239Z,99.90
2019-03-28T04:07:03.621Z,99.90
2019-03-28T04:09:34.730Z,99.90
2019-03-28T04:12:05.791Z,99.90
2019-03-28T04:14:36.928Z,99.90
2019-03-28T04:17:07.959Z,99.90
2019-03-28T04:19:38.931Z,99.90
2019-03-28T04:22:10.232Z,99.90
2019-03-28T04:24:41.409Z,99.90
2019-03-28T04:27:12.568Z,99.90
2019-03-28T04:29:43.721Z,99.90
2019-03-28T04:32:14.794Z,99.90
2019-03-28T04:34:45.883Z,99.90
2019-03-28T04:37:16.994Z,99.90
2019-03-28T04:39:48.013Z,99.90
2019-03-28T04:42:19.032Z,99.90
2019-03-28T04:44:50.100Z,99.90
2019-03-28T04:47:21.309Z,99.90
2019-03-28T04:49:52.525Z,99.90
2019-03-28T04:52:23.578Z,99.90
2019-03-28T04:54:55.357Z,99.90
2019-03-28T04:57:26.519Z,99.90
2019-03-28T04:59:57.636Z,99.90
2019-03-28T05:02:28.595Z,99.90
2019-03-28T05:04:59.630Z,99.90
2019-03-28T05:07:31.774Z,99.90
2019-03-28T05:10:02.939Z,99.90
2019-03-28T05:12:34.115Z,99.90
2019-03-28T05:15:06.487Z,99.90
2019-03-28T05:17:37.558Z,99.90
2019-03-28T05:20:08.731Z,99.90
2019-03-28T05:22:41.433Z,99.90
2019-03-28T05:25:14.002Z,99.90
2019-03-28T05:27:45.103Z,99.90
2019-03-28T05:30:17.817Z,99.90
2019-03-28T05:32:48.955Z,99.90
2019-03-28T05:35:20.041Z,99.90
2019-03-28T05:37:51.245Z,99.90
2019-03-28T05:40:22.958Z,99.90
2019-03-28T05:42:55.376Z,99.90
2019-03-28T05:45:26.705Z,99.90
2019-03-28T05:48:00.152Z,99.90
2019-03-28T05:50:30.620Z,99.90
2019-03-28T05:53:01.917Z,99.90
2019-03-28T05:55:33.130Z,99.90
2019-03-28T05:58:04.274Z,99.90
2019-03-28T06:00:35.406Z,99.90
2019-03-28T06:03:06.518Z,99.90
2019-03-28T06:05:37.511Z,99.90
2019-03-28T06:08:08.593Z,99.90
2019-03-28T06:10:39.624Z,99.90
2019-03-28T06:13:10.819Z,99.90
2019-03-28T06:15:42.152Z,99.90
2019-03-28T06:18:13.296Z,99.90
2019-03-28T06:20:44.295Z,99.90
2019-03-28T06:23:15.397Z,99.90
2019-03-28T06:25:46.508Z,99.90
2019-03-28T06:28:18.632Z,99.90
2019-03-28T06:30:49.728Z,99.90
2019-03-28T06:33:20.862Z,99.90
2019-03-28T06:35:51.881Z,99.90
2019-03-28T06:38:23.157Z,99.90
2019-03-28T06:40:54.349Z,99.90
2019-03-28T06:43:25.509Z,99.90
2019-03-28T06:45:56.694Z,99.90
2019-03-28T06:48:27.870Z,99.90
2019-03-28T06:50:59.116Z,99.90
2019-03-28T06:53:30.358Z,99.90
2019-03-28T06:56:01.518Z,99.90
2019-03-28T06:58:32.588Z,99.90
2019-03-28T07:01:03.923Z,99.90
2019-03-28T07:03:35.090Z,99.90
2019-03-28T07:06:06.439Z,99.90
2019-03-28T07:08:37.502Z,99.90
2019-03-28T07:11:10.477Z,99.90
2019-03-28T07:13:42.690Z,99.90
2019-03-28T07:16:14.287Z,99.90
2019-03-28T07:18:45.374Z,99.90
2019-03-28T07:21:18.266Z,99.90
2019-03-28T07:23:49.548Z,99.90
2019-03-28T07:26:20.887Z,99.90
2019-03-28T07:28:54.291Z,99.90
2019-03-28T07:31:24.939Z,99.90
2019-03-28T07:33:56.309Z,99.90
2019-03-28T07:36:27.508Z,99.90
2019-03-28T07:38:58.765Z,99.90
2019-03-28T07:41:29.977Z,99.90
2019-03-28T07:44:02.107Z,99.90
2019-03-28T07:46:33.440Z,99.90
2019-03-28T07:49:04.617Z,99.90
2019-03-28T07:51:36.674Z,99.90
2019-03-28T07:54:07.975Z,99.90
2019-03-28T07:56:39.055Z,99.90
2019-03-28T07:59:10.194Z,99.90
2019-03-28T08:01:41.242Z,98.80
2019-03-28T08:04:12.464Z,98.40
2019-03-28T08:06:49.563Z,98.00
2019-03-28T08:09:17.698Z,98.50
2019-03-28T08:11:49.025Z,99.30
2019-03-28T08:14:20.338Z,99.40
2019-03-28T08:16:51.565Z,98.30
2019-03-28T08:19:22.717Z,97.40
2019-03-28T08:21:53.879Z,96.90
2019-03-28T08:24:24.984Z,97.90
2019-03-28T08:26:56.118Z,96.40
2019-03-28T08:29:27.384Z,95.60
2019-03-28T08:31:59.146Z,95.00
2019-03-28T08:34:31.398Z,96.10
2019-03-28T08:37:04.137Z,97.60
2019-03-28T08:39:35.385Z,96.80
2019-03-28T08:42:06.526Z,97.20
2019-03-28T08:44:38.560Z,98.10
2019-03-28T08:47:10.057Z,99.00
2019-03-28T08:49:41.251Z,99.80
2019-03-28T08:52:12.378Z,99.90
2019-03-28T08:54:43.530Z,99.90
2019-03-28T08:57:14.932Z,99.90
2019-03-28T08:59:46.078Z,99.90
2019-03-28T09:02:17.138Z,99.90
2019-03-28T09:04:49.999Z,99.90
2019-03-28T09:07:20.988Z,99.70
2019-03-28T09:09:54.365Z,99.70
2019-03-28T09:12:26.610Z,99.20
2019-03-28T09:14:57.789Z,98.10
2019-03-28T09:17:28.946Z,97.90
2019-03-28T09:20:00.047Z,99.30
2019-03-28T09:22:31.410Z,99.20
2019-03-28T09:25:02.748Z,97.80
2019-03-28T09:27:33.910Z,98.10
2019-03-28T09:30:06.292Z,98.70
2019-03-28T09:32:37.620Z,98.50
2019-03-28T09:35:10.127Z,99.40
2019-03-28T09:37:41.366Z,98.40
2019-03-28T09:40:12.735Z,98.30
2019-03-28T09:42:43.900Z,97.40
2019-03-28T09:45:15.021Z,96.60
2019-03-28T09:47:46.152Z,96.10
2019-03-28T09:50:17.458Z,95.40
2019-03-28T09:52:48.799Z,96.50
2019-03-28T09:55:20.120Z,94.90
2019-03-28T09:57:51.266Z,93.30
2019-03-28T10:00:22.494Z,92.10
2019-03-28T10:02:53.780Z,92.80
2019-03-28T10:05:24.812Z,93.80
2019-03-28T10:07:56.041Z,92.60
2019-03-28T10:10:27.198Z,92.50
2019-03-28T10:12:58.562Z,92.60
2019-03-28T10:15:29.785Z,91.60
2019-03-28T10:18:01.058Z,90.90
2019-03-28T10:20:32.119Z,91.20
2019-03-28T10:23:03.306Z,89.60
2019-03-28T10:25:34.653Z,86.50
2019-03-28T10:28:06.303Z,88.60
2019-03-28T10:30:47.051Z,90.80
2019-03-28T10:33:18.321Z,89.30
2019-03-28T10:35:49.761Z,83.80
2019-03-28T10:38:21.002Z,83.10
2019-03-28T10:40:52.177Z,83.20
2019-03-28T10:43:26.138Z,85.90
2019-03-28T10:45:57.841Z,87.30
2019-03-28T10:48:29.201Z,87.90
2019-03-28T10:51:00.598Z,86.20
2019-03-28T10:53:31.826Z,86.50
2019-03-28T10:56:03.498Z,88.60
2019-03-28T10:58:35.270Z,91.40
2019-03-28T11:01:07.305Z,88.40
2019-03-28T11:03:38.664Z,90.00
2019-03-28T11:06:09.978Z,88.00
2019-03-28T11:08:41.175Z,88.90
2019-03-28T11:11:12.418Z,88.60
2019-03-28T11:13:43.852Z,83.00
2019-03-28T11:16:15.409Z,81.80
2019-03-28T11:18:46.777Z,84.00
2019-03-28T11:21:17.999Z,84.20
2019-03-28T11:23:49.060Z,87.70
2019-03-28T11:26:20.354Z,87.30
2019-03-28T11:28:51.667Z,89.80
2019-03-28T11:31:23.009Z,86.70
2019-03-28T11:33:54.512Z,84.80
2019-03-28T11:36:25.970Z,83.40
2019-03-28T11:38:57.259Z,80.60
2019-03-28T11:41:28.471Z,75.40
2019-03-28T11:43:59.663Z,66.40
2019-03-28T11:46:30.848Z,69.30
2019-03-28T11:49:02.168Z,73.40
2019-03-28T11:51:36.085Z,77.10
2019-03-28T11:54:06.336Z,80.50
2019-03-28T11:56:37.671Z,83.30
2019-03-28T11:59:08.712Z,82.40
2019-03-28T12:01:40.136Z,81.50
2019-03-28T12:04:11.446Z,79.80
2019-03-28T12:06:42.623Z,78.10
2019-03-28T12:09:14.062Z,75.20
2019-03-28T12:11:45.380Z,70.20
2019-03-28T12:14:16.673Z,70.10
2019-03-28T12:16:47.902Z,73.10
2019-03-28T12:19:19.066Z,69.00
2019-03-28T12:21:50.270Z,69.50
2019-03-28T12:24:21.362Z,70.00
2019-03-28T12:26:52.567Z,70.70
2019-03-28T12:29:24.094Z,67.00
2019-03-28T12:31:55.340Z,68.20
2019-03-28T12:34:27.834Z,63.50
2019-03-28T12:36:59.024Z,60.70
2019-03-28T12:39:30.251Z,58.20
2019-03-28T12:42:01.501Z,59.80
2019-03-28T12:44:32.792Z,64.60
2019-03-28T12:47:03.978Z,70.60
2019-03-28T12:49:35.139Z,74.80
2019-03-28T12:52:06.297Z,72.90
2019-03-28T12:54:37.681Z,69.70
2019-03-28T12:57:09.254Z,69.00
2019-03-28T12:59:40.617Z,65.50
2019-03-28T13:02:12.138Z,58.50
2019-03-28T13:04:43.346Z,61.40
2019-03-28T13:07:14.366Z,54.50
2019-03-28T13:09:45.579Z,55.30
2019-03-28T13:12:17.768Z,55.90
2019-03-28T13:14:49.197Z,58.50
2019-03-28T13:17:20.316Z,57.80
2019-03-28T13:19:51.398Z,58.00
2019-03-28T13:22:22.481Z,57.90
2019-03-28T13:24:53.614Z,58.20
2019-03-28T13:27:24.639Z,60.50
2019-03-28T13:29:55.765Z,58.50
2019-03-28T13:32:40.785Z,57.90
2019-03-28T13:35:00.942Z,60.00
2019-03-28T13:37:32.108Z,60.40
2019-03-28T13:40:03.371Z,62.00
2019-03-28T13:42:34.729Z,61.60
2019-03-28T13:45:07.509Z,64.00
2019-03-28T13:47:38.842Z,61.60
2019-03-28T13:50:10.820Z,59.10
2019-03-28T13:52:42.416Z,59.00
2019-03-28T13:55:13.758Z,59.30
2019-03-28T13:57:44.982Z,59.50
2019-03-28T14:00:21.793Z,61.10
2019-03-28T14:02:59.018Z,60.20
2019-03-28T14:05:28.704Z,61.90
2019-03-28T14:07:59.860Z,63.90
2019-03-28T14:10:31.206Z,64.30
2019-03-28T14:13:02.667Z,65.60
2019-03-28T14:15:34.149Z,61.10
2019-03-28T14:18:05.392Z,62.60
2019-03-28T14:20:37.509Z,60.50
2019-03-28T14:23:08.691Z,60.30
2019-03-28T14:25:39.815Z,59.50
2019-03-28T14:28:10.963Z,59.60
2019-03-28T14:30:42.111Z,58.60
2019-03-28T14:33:15.876Z,56.70
2019-03-28T14:35:46.587Z,56.60
2019-03-28T14:38:17.945Z,56.50
2019-03-28T14:40:49.236Z,56.80
2019-03-28T14:43:20.475Z,57.00
2019-03-28T14:45:51.517Z,57.20
2019-03-28T14:48:22.654Z,58.30
2019-03-28T14:50:53.694Z,59.00
2019-03-28T14:53:24.991Z,60.10
2019-03-28T14:55:56.389Z,60.90
2019-03-28T14:58:29.927Z,60.30
2019-03-28T15:01:01.631Z,58.60
2019-03-28T15:03:33.003Z,57.40
2019-03-28T15:06:04.446Z,57.30
2019-03-28T15:08:35.670Z,56.90
2019-03-28T15:11:06.879Z,56.10
2019-03-28T15:13:40.498Z,57.70
2019-03-28T15:16:11.357Z,60.20
2019-03-28T15:18:42.752Z,60.80
2019-03-28T15:21:14.057Z,61.00
2019-03-28T15:23:45.275Z,60.50
2019-03-28T15:26:16.521Z,60.70
2019-03-28T15:28:47.783Z,60.90
2019-03-28T15:31:19.121Z,60.60
2019-03-28T15:33:50.348Z,57.70
2019-03-28T15:36:23.232Z,57.60
2019-03-28T15:38:54.846Z,59.90
2019-03-28T15:41:26.172Z,57.00
2019-03-28T15:43:57.097Z,56.60
2019-03-28T15:46:28.296Z,57.10
2019-03-28T15:48:59.531Z,55.40
2019-03-28T15:51:30.856Z,53.00
2019-03-28T15:54:01.993Z,49.60
2019-03-28T15:56:33.445Z,48.50
2019-03-28T15:59:04.548Z,48.40
2019-03-28T16:01:35.715Z,50.10
2019-03-28T16:04:07.153Z,51.00
2019-03-28T16:06:39.370Z,52.10
2019-03-28T16:09:10.719Z,50.60
2019-03-28T16:11:41.956Z,51.60
2019-03-28T16:14:13.313Z,52.10
2019-03-28T16:16:44.577Z,54.10
2019-03-28T16:19:15.805Z,56.50
2019-03-28T16:21:47.420Z,57.90
2019-03-28T16:24:18.668Z,59.30
2019-03-28T16:26:50.025Z,61.30
2019-03-28T16:29:21.051Z,63.10
2019-03-28T16:31:52.481Z,65.50
2019-03-28T16:34:23.548Z,67.30
2019-03-28T16:36:55.853Z,68.50
2019-03-28T16:39:26.940Z,70.80
2019-03-28T16:41:58.306Z,72.00
2019-03-28T16:44:29.492Z,74.30
2019-03-28T16:47:00.863Z,77.50
2019-03-28T16:49:31.912Z,79.30
2019-03-28T16:52:03.012Z,82.10
2019-03-28T16:54:34.314Z,83.70
2019-03-28T16:57:05.741Z,85.00
2019-03-28T16:59:39.350Z,86.80
2019-03-28T17:02:10.556Z,88.50
2019-03-28T17:04:41.757Z,89.90
2019-03-28T17:07:16.718Z,90.50
2019-03-28T17:09:51.059Z,91.00
2019-03-28T17:12:24.084Z,91.40
2019-03-28T17:14:55.274Z,92.00
2019-03-28T17:17:26.599Z,92.30
2019-03-28T17:20:01.860Z,92.80
2019-03-28T17:22:33.899Z,93.30
2019-03-28T17:25:05.373Z,93.60
2019-03-28T17:27:36.474Z,94.00
2019-03-28T17:30:08.325Z,94.50
2019-03-28T17:32:39.651Z,95.20
2019-03-28T17:35:12.819Z,95.60
2019-03-28T17:37:43.739Z,95.50
2019-03-28T17:40:15.121Z,96.20
2019-03-28T17:42:47.859Z,96.60
2019-03-28T17:45:19.266Z,97.00
2019-03-28T17:47:50.697Z,97.00
2019-03-28T17:50:21.862Z,97.80
2019-03-28T17:52:53.679Z,98.80
2019-03-28T17:55:27.004Z,99.70
2019-03-28T17:57:58.219Z,99.90
2019-03-28T18:00:29.378Z,99.90
2019-03-28T18:03:09.619Z,99.90
2019-03-28T18:05:36.988Z,99.90
2019-03-28T18:08:08.358Z,99.90
2019-03-28T18:10:39.793Z,99.90
2019-03-28T18:13:12.530Z,99.90
2019-03-28T18:15:43.876Z,99.90
2019-03-28T18:18:15.190Z,99.90
2019-03-28T18:20:46.568Z,99.90
2019-03-28T18:23:17.828Z,99.90
2019-03-28T18:25:53.799Z,99.90
2019-03-28T18:28:25.594Z,99.90
2019-03-28T18:30:57.083Z,99.90
2019-03-28T18:33:28.469Z,99.90
2019-03-28T18:36:18.633Z,99.90
2019-03-28T18:38:52.381Z,99.90
2019-03-28T18:41:22.848Z,99.90
2019-03-28T18:43:54.192Z,99.90
2019-03-28T18:46:26.262Z,99.90
2019-03-28T18:48:58.056Z,99.90
2019-03-28T18:51:29.372Z,99.90
2019-03-28T18:54:00.619Z,99.90
2019-03-28T18:56:31.857Z,99.90
2019-03-28T18:59:03.153Z,99.90
2019-03-28T19:01:34.776Z,99.90
2019-03-28T19:04:07.750Z,99.90
2019-03-28T19:06:38.938Z,99.90
2019-03-28T19:09:10.266Z,99.90
2019-03-28T19:11:41.689Z,99.90
2019-03-28T19:14:13.198Z,99.90
2019-03-28T19:16:48.199Z,99.90
2019-03-28T19:19:18.388Z,99.90
2019-03-28T19:21:49.568Z,99.90
2019-03-28T19:24:23.848Z,99.90
2019-03-28T19:26:55.049Z,99.90
2019-03-28T19:29:26.678Z,99.90
2019-03-28T19:31:58.037Z,99.90
2019-03-28T19:34:29.148Z,99.90
2019-03-28T19:37:01.732Z,99.90
2019-03-28T19:39:33.771Z,99.90
2019-03-28T19:42:05.139Z,99.90
2019-03-28T19:44:37.331Z,99.90
2019-03-28T19:47:08.767Z,99.90
2019-03-28T19:49:40.068Z,99.90
2019-03-28T19:52:13.362Z,99.90
2019-03-28T19:54:45.361Z,99.90
2019-03-28T19:57:16.440Z,99.90
2019-03-28T19:59:47.765Z,99.90
2019-03-28T20:02:19.096Z,99.90
2019-03-28T20:04:50.452Z,99.90
2019-03-28T20:07:23.099Z,99.90
2019-03-28T20:09:57.232Z,99.90
2019-03-28T20:12:27.417Z,99.90
2019-03-28T20:15:00.294Z,99.90
2019-03-28T20:17:31.901Z,99.90
2019-03-28T20:20:03.332Z,99.90
2019-03-28T20:22:34.677Z,99.90
2019-03-28T20:25:06.892Z,99.90
2019-03-28T20:27:38.733Z,99.90
2019-03-28T20:30:11.318Z,99.90
2019-03-28T20:32:43.825Z,99.90
2019-03-28T20:35:15.168Z,99.90
2019-03-28T20:37:46.404Z,99.90
2019-03-28T20:40:18.072Z,99.90
2019-03-28T20:42:49.489Z,99.90
2019-03-28T20:45:22.674Z,99.90
2019-03-28T20:47:53.911Z,99.90
2019-03-28T20:50:25.297Z,99.90
2019-03-28T20:52:56.416Z,99.90
2019-03-28T20:55:27.648Z,99.90
2019-03-28T20:57:58.877Z,99.90
2019-03-28T21:00:39.937Z,99.90
2019-03-28T21:03:11.361Z,99.90
2019-03-28T21:05:46.040Z,99.90
2019-03-28T21:08:17.309Z,99.90
2019-03-28T21:10:48.450Z,99.90
2019-03-28T21:13:19.971Z,99.90
2019-03-28T21:15:51.027Z,99.90
2019-03-28T21:18:22.168Z,99.90
2019-03-28T21:20:54.353Z,99.90
2019-03-28T21:23:25.508Z,99.90
2019-03-28T21:25:56.519Z,99.90
2019-03-28T21:28:27.539Z,99.90
2019-03-28T21:30:59.239Z,99.90
2019-03-28T21:33:30.453Z,99.90
2019-03-28T21:36:01.575Z,99.90
2019-03-28T21:38:32.618Z,99.90
2019-03-28T21:41:03.799Z,99.90
2019-03-28T21:43:34.937Z,99.90
2019-03-28T21:46:06.237Z,99.90
2019-03-28T21:48:37.849Z,99.90
2019-03-28T21:51:11.448Z,99.90
2019-03-28T21:53:41.667Z,99.90
2019-03-28T21:56:14.326Z,99.90
2019-03-28T21:58:45.578Z,99.90
2019-03-28T22:01:16.710Z,99.90
2019-03-28T22:03:47.603Z,99.90
2019-03-28T22:06:18.705Z,99.90
2019-03-28T22:08:49.973Z,99.90
2019-03-28T22:11:21.590Z,99.90
2019-03-28T22:13:52.776Z,99.90
2019-03-28T22:16:26.865Z,99.90
2019-03-28T22:18:58.034Z,99.90
2019-03-28T22:21:29.680Z,99.90
2019-03-28T22:24:00.796Z,99.90
2019-03-28T22:26:31.953Z,99.90
2019-03-28T22:29:03.092Z,99.90
2019-03-28T22:31:34.075Z,99.90
2019-03-28T22:34:05.060Z,99.90
2019-03-28T22:36:36.301Z,99.90
2019-03-28T22:39:08.150Z,99.90
2019-03-28T22:41:39.211Z,99.90
2019-03-28T22:44:10.197Z,99.90
2019-03-28T22:46:41.202Z,99.90
2019-03-28T22:49:15.444Z,99.90
2019-03-28T22:51:46.465Z,99.90
2019-03-28T22:54:17.553Z,99.90
2019-03-28T22:56:49.938Z,99.90
2019-03-28T22:59:21.191Z,99.90
2019-03-28T23:01:52.097Z,99.90
2019-03-28T23:04:23.361Z,99.90
2019-03-28T23:06:54.511Z,99.90
2019-03-28T23:09:25.724Z,99.90
2019-03-28T23:11:57.008Z,99.90
2019-03-28T23:14:28.104Z,99.90
2019-03-28T23:16:59.089Z,99.90
2019-03-28T23:19:30.188Z,99.90
2019-03-28T23:22:01.174Z,99.90
2019-03-28T23:24:32.219Z,99.90
2019-03-28T23:27:03.354Z,99.90
2019-03-28T23:29:36.185Z,99.90
2019-03-28T23:32:08.068Z,99.90
2019-03-28T23:34:39.224Z,99.90
2019-03-28T23:37:23.960Z,99.90
2019-03-28T23:39:43.195Z,99.90
2019-03-28T23:42:17.566Z,99.90
2019-03-28T23:44:46.918Z,99.90
2019-03-28T23:47:18.141Z,99.90
2019-03-28T23:49:49.293Z,99.90
2019-03-28T23:52:20.458Z,99.90
2019-03-28T23:54:52.192Z,99.90
2019-03-28T23:57:23.725Z,99.90
2019-03-28T23:59:54.753Z,99.90
